sensor_id;sensor_type;location;lat;lon;timestamp;P1;durP1;ratioP1;P2;durP2;ratioP2
66633;SDS011;53546;52.184;5.596;2022-11-12T00:00:37;7.68;;;5.07;;
66633;SDS011;53546;52.184;5.596;2022-11-12T00:03:03;6.78;;;5.15;;
66633;SDS011;53546;52.184;5.596;2022-11-12T00:05:28;7.93;;;5.63;;
66633;SDS011;53546;52.184;5.596;2022-11-12T00:07:54;10.15;;;5.30;;
66633;SDS011;53546;52.184;5.596;2022-11-12T00:10:19;8.13;;;5.68;;
66633;SDS011;53546;52.184;5.596;2022-11-12T00:12:45;7.07;;;5.25;;
66633;SDS011;53546;52.184;5.596;2022-11-12T00:15:11;7.30;;;5.47;;
66633;SDS011;53546;52.184;5.596;2022-11-12T00:17:37;8.23;;;5.22;;
66633;SDS011;53546;52.184;5.596;2022-11-12T00:20:02;7.32;;;5.18;;
66633;SDS011;53546;52.184;5.596;2022-11-12T00:22:28;8.20;;;5.07;;
66633;SDS011;53546;52.184;5.596;2022-11-12T00:24:53;9.63;;;5.10;;
66633;SDS011;53546;52.184;5.596;2022-11-12T00:27:19;6.30;;;5.05;;
66633;SDS011;53546;52.184;5.596;2022-11-12T00:29:44;7.70;;;5.47;;
66633;SDS011;53546;52.184;5.596;2022-11-12T00:32:10;8.38;;;5.47;;
66633;SDS011;53546;52.184;5.596;2022-11-12T00:34:35;8.63;;;5.38;;
66633;SDS011;53546;52.184;5.596;2022-11-12T00:37:01;7.57;;;5.15;;
66633;SDS011;53546;52.184;5.596;2022-11-12T00:39:27;7.53;;;4.90;;
66633;SDS011;53546;52.184;5.596;2022-11-12T00:41:52;6.88;;;4.90;;
66633;SDS011;53546;52.184;5.596;2022-11-12T00:44:18;8.00;;;5.00;;
66633;SDS011;53546;52.184;5.596;2022-11-12T00:46:43;8.90;;;5.32;;
66633;SDS011;53546;52.184;5.596;2022-11-12T00:49:09;5.95;;;4.97;;
66633;SDS011;53546;52.184;5.596;2022-11-12T00:51:34;7.25;;;5.35;;
66633;SDS011;53546;52.184;5.596;2022-11-12T00:54:00;8.20;;;4.90;;
66633;SDS011;53546;52.184;5.596;2022-11-12T00:56:25;6.10;;;5.03;;
66633;SDS011;53546;52.184;5.596;2022-11-12T00:58:51;8.57;;;5.10;;
66633;SDS011;53546;52.184;5.596;2022-11-12T01:01:16;9.48;;;5.20;;
66633;SDS011;53546;52.184;5.596;2022-11-12T01:03:42;6.35;;;5.03;;
66633;SDS011;53546;52.184;5.596;2022-11-12T01:08:34;9.55;;;5.07;;
66633;SDS011;53546;52.184;5.596;2022-11-12T01:11:03;6.82;;;4.90;;
66633;SDS011;53546;52.184;5.596;2022-11-12T01:13:33;7.07;;;4.80;;
66633;SDS011;53546;52.184;5.596;2022-11-12T01:15:58;6.30;;;4.55;;
66633;SDS011;53546;52.184;5.596;2022-11-12T01:18:24;7.90;;;5.03;;
66633;SDS011;53546;52.184;5.596;2022-11-12T01:20:49;6.97;;;5.13;;
66633;SDS011;53546;52.184;5.596;2022-11-12T01:23:14;5.78;;;4.30;;
66633;SDS011;53546;52.184;5.596;2022-11-12T01:25:40;6.80;;;4.80;;
66633;SDS011;53546;52.184;5.596;2022-11-12T01:28:05;5.22;;;4.38;;
66633;SDS011;53546;52.184;5.596;2022-11-12T01:30:30;5.47;;;4.45;;
66633;SDS011;53546;52.184;5.596;2022-11-12T01:32:56;7.53;;;4.90;;
66633;SDS011;53546;52.184;5.596;2022-11-12T01:35:21;5.35;;;4.50;;
66633;SDS011;53546;52.184;5.596;2022-11-12T01:37:46;5.85;;;4.38;;
66633;SDS011;53546;52.184;5.596;2022-11-12T01:40:12;7.63;;;5.18;;
66633;SDS011;53546;52.184;5.596;2022-11-12T01:42:39;5.10;;;4.22;;
66633;SDS011;53546;52.184;5.596;2022-11-12T01:45:11;6.25;;;4.63;;
66633;SDS011;53546;52.184;5.596;2022-11-12T01:47:40;5.45;;;4.45;;
66633;SDS011;53546;52.184;5.596;2022-11-12T01:52:39;6.20;;;4.78;;
66633;SDS011;53546;52.184;5.596;2022-11-12T01:55:10;10.10;;;4.50;;
66633;SDS011;53546;52.184;5.596;2022-11-12T01:57:40;8.07;;;4.43;;
66633;SDS011;53546;52.184;5.596;2022-11-12T02:00:10;7.97;;;5.20;;
66633;SDS011;53546;52.184;5.596;2022-11-12T02:02:36;5.82;;;4.57;;
66633;SDS011;53546;52.184;5.596;2022-11-12T02:05:03;6.60;;;4.85;;
66633;SDS011;53546;52.184;5.596;2022-11-12T02:07:30;8.00;;;4.50;;
66633;SDS011;53546;52.184;5.596;2022-11-12T02:09:57;7.10;;;3.97;;
66633;SDS011;53546;52.184;5.596;2022-11-12T02:12:24;8.27;;;4.78;;
66633;SDS011;53546;52.184;5.596;2022-11-12T02:15:08;6.38;;;4.55;;
66633;SDS011;53546;52.184;5.596;2022-11-12T02:17:33;5.18;;;4.32;;
66633;SDS011;53546;52.184;5.596;2022-11-12T02:19:59;5.75;;;4.00;;
66633;SDS011;53546;52.184;5.596;2022-11-12T02:22:24;6.53;;;4.85;;
66633;SDS011;53546;52.184;5.596;2022-11-12T02:24:50;6.57;;;4.30;;
66633;SDS011;53546;52.184;5.596;2022-11-12T02:27:15;5.95;;;4.45;;
66633;SDS011;53546;52.184;5.596;2022-11-12T02:29:41;6.35;;;4.22;;
66633;SDS011;53546;52.184;5.596;2022-11-12T02:32:11;7.45;;;4.20;;
66633;SDS011;53546;52.184;5.596;2022-11-12T02:34:37;9.05;;;4.47;;
66633;SDS011;53546;52.184;5.596;2022-11-12T02:37:03;6.97;;;4.40;;
66633;SDS011;53546;52.184;5.596;2022-11-12T02:39:29;9.45;;;4.78;;
66633;SDS011;53546;52.184;5.596;2022-11-12T02:41:54;7.32;;;4.65;;
66633;SDS011;53546;52.184;5.596;2022-11-12T02:44:20;6.97;;;4.43;;
66633;SDS011;53546;52.184;5.596;2022-11-12T02:46:45;6.65;;;4.28;;
66633;SDS011;53546;52.184;5.596;2022-11-12T02:49:10;6.45;;;4.65;;
66633;SDS011;53546;52.184;5.596;2022-11-12T02:51:36;5.90;;;4.40;;
66633;SDS011;53546;52.184;5.596;2022-11-12T02:54:01;7.05;;;4.53;;
66633;SDS011;53546;52.184;5.596;2022-11-12T02:56:27;5.50;;;4.40;;
66633;SDS011;53546;52.184;5.596;2022-11-12T02:58:52;6.00;;;4.30;;
66633;SDS011;53546;52.184;5.596;2022-11-12T03:01:18;7.95;;;4.13;;
66633;SDS011;53546;52.184;5.596;2022-11-12T03:03:43;7.32;;;4.45;;
66633;SDS011;53546;52.184;5.596;2022-11-12T03:06:08;7.07;;;4.30;;
66633;SDS011;53546;52.184;5.596;2022-11-12T03:08:34;7.30;;;4.47;;
66633;SDS011;53546;52.184;5.596;2022-11-12T03:11:04;4.85;;;4.25;;
66633;SDS011;53546;52.184;5.596;2022-11-12T03:13:33;7.30;;;4.28;;
66633;SDS011;53546;52.184;5.596;2022-11-12T03:15:59;6.47;;;4.07;;
66633;SDS011;53546;52.184;5.596;2022-11-12T03:18:25;5.13;;;4.32;;
66633;SDS011;53546;52.184;5.596;2022-11-12T03:20:50;5.50;;;4.18;;
66633;SDS011;53546;52.184;5.596;2022-11-12T03:23:16;6.18;;;4.72;;
66633;SDS011;53546;52.184;5.596;2022-11-12T03:25:41;7.80;;;3.80;;
66633;SDS011;53546;52.184;5.596;2022-11-12T03:28:11;5.35;;;4.22;;
66633;SDS011;53546;52.184;5.596;2022-11-12T03:30:38;6.03;;;4.45;;
66633;SDS011;53546;52.184;5.596;2022-11-12T03:33:05;5.93;;;4.65;;
66633;SDS011;53546;52.184;5.596;2022-11-12T03:35:33;6.28;;;4.55;;
66633;SDS011;53546;52.184;5.596;2022-11-12T03:37:58;6.65;;;4.63;;
66633;SDS011;53546;52.184;5.596;2022-11-12T03:40:24;5.93;;;4.20;;
66633;SDS011;53546;52.184;5.596;2022-11-12T03:42:50;6.47;;;4.20;;
66633;SDS011;53546;52.184;5.596;2022-11-12T03:45:16;5.32;;;4.13;;
66633;SDS011;53546;52.184;5.596;2022-11-12T03:47:49;4.63;;;4.13;;
66633;SDS011;53546;52.184;5.596;2022-11-12T03:50:17;5.63;;;4.35;;
66633;SDS011;53546;52.184;5.596;2022-11-12T03:52:44;5.47;;;4.13;;
66633;SDS011;53546;52.184;5.596;2022-11-12T03:55:10;4.43;;;3.75;;
66633;SDS011;53546;52.184;5.596;2022-11-12T03:57:36;5.90;;;4.10;;
66633;SDS011;53546;52.184;5.596;2022-11-12T04:00:02;6.25;;;4.35;;
66633;SDS011;53546;52.184;5.596;2022-11-12T04:02:29;6.45;;;4.47;;
66633;SDS011;53546;52.184;5.596;2022-11-12T04:04:55;5.57;;;4.18;;
66633;SDS011;53546;52.184;5.596;2022-11-12T04:07:39;5.90;;;4.32;;
66633;SDS011;53546;52.184;5.596;2022-11-12T04:10:23;5.45;;;3.85;;
66633;SDS011;53546;52.184;5.596;2022-11-12T04:12:48;6.68;;;4.50;;
66633;SDS011;53546;52.184;5.596;2022-11-12T04:15:32;5.03;;;4.47;;
66633;SDS011;53546;52.184;5.596;2022-11-12T04:17:57;6.45;;;4.70;;
66633;SDS011;53546;52.184;5.596;2022-11-12T04:20:41;6.60;;;4.40;;
66633;SDS011;53546;52.184;5.596;2022-11-12T04:23:25;4.60;;;4.10;;
66633;SDS011;53546;52.184;5.596;2022-11-12T04:25:51;4.68;;;4.10;;
66633;SDS011;53546;52.184;5.596;2022-11-12T04:28:34;5.72;;;4.43;;
66633;SDS011;53546;52.184;5.596;2022-11-12T04:31:00;5.75;;;4.25;;
66633;SDS011;53546;52.184;5.596;2022-11-12T04:33:25;4.85;;;4.10;;
66633;SDS011;53546;52.184;5.596;2022-11-12T04:35:50;6.05;;;4.38;;
66633;SDS011;53546;52.184;5.596;2022-11-12T04:38:16;7.63;;;4.55;;
66633;SDS011;53546;52.184;5.596;2022-11-12T04:40:41;7.15;;;4.60;;
66633;SDS011;53546;52.184;5.596;2022-11-12T04:43:25;6.95;;;4.25;;
66633;SDS011;53546;52.184;5.596;2022-11-12T04:46:09;7.18;;;4.63;;
66633;SDS011;53546;52.184;5.596;2022-11-12T04:48:34;5.35;;;4.30;;
66633;SDS011;53546;52.184;5.596;2022-11-12T04:51:00;4.70;;;4.10;;
66633;SDS011;53546;52.184;5.596;2022-11-12T04:53:27;7.90;;;4.63;;
66633;SDS011;53546;52.184;5.596;2022-11-12T04:55:54;6.35;;;4.35;;
66633;SDS011;53546;52.184;5.596;2022-11-12T04:58:21;6.05;;;3.90;;
66633;SDS011;53546;52.184;5.596;2022-11-12T05:00:47;5.38;;;4.35;;
66633;SDS011;53546;52.184;5.596;2022-11-12T05:03:13;6.25;;;4.43;;
66633;SDS011;53546;52.184;5.596;2022-11-12T05:05:39;5.82;;;3.97;;
66633;SDS011;53546;52.184;5.596;2022-11-12T05:08:04;6.05;;;4.63;;
66633;SDS011;53546;52.184;5.596;2022-11-12T05:10:30;7.00;;;4.30;;
66633;SDS011;53546;52.184;5.596;2022-11-12T05:12:55;5.75;;;4.47;;
66633;SDS011;53546;52.184;5.596;2022-11-12T05:15:21;6.68;;;4.75;;
66633;SDS011;53546;52.184;5.596;2022-11-12T05:17:47;5.15;;;4.30;;
66633;SDS011;53546;52.184;5.596;2022-11-12T05:20:13;7.85;;;4.20;;
66633;SDS011;53546;52.184;5.596;2022-11-12T05:22:39;5.85;;;4.55;;
66633;SDS011;53546;52.184;5.596;2022-11-12T05:25:05;5.35;;;4.30;;
66633;SDS011;53546;52.184;5.596;2022-11-12T05:27:31;6.35;;;4.28;;
66633;SDS011;53546;52.184;5.596;2022-11-12T05:29:56;4.70;;;4.20;;
66633;SDS011;53546;52.184;5.596;2022-11-12T05:32:22;6.57;;;4.57;;
66633;SDS011;53546;52.184;5.596;2022-11-12T05:34:47;5.70;;;4.75;;
66633;SDS011;53546;52.184;5.596;2022-11-12T05:37:13;5.65;;;4.65;;
66633;SDS011;53546;52.184;5.596;2022-11-12T05:39:38;5.47;;;4.15;;
66633;SDS011;53546;52.184;5.596;2022-11-12T05:42:04;6.05;;;4.53;;
66633;SDS011;53546;52.184;5.596;2022-11-12T05:44:30;5.85;;;4.28;;
66633;SDS011;53546;52.184;5.596;2022-11-12T05:46:55;7.25;;;4.47;;
66633;SDS011;53546;52.184;5.596;2022-11-12T05:49:21;5.22;;;4.47;;
66633;SDS011;53546;52.184;5.596;2022-11-12T05:51:46;6.10;;;4.50;;
66633;SDS011;53546;52.184;5.596;2022-11-12T05:54:11;5.60;;;4.35;;
66633;SDS011;53546;52.184;5.596;2022-11-12T05:56:37;5.70;;;4.40;;
66633;SDS011;53546;52.184;5.596;2022-11-12T05:59:03;6.65;;;4.03;;
66633;SDS011;53546;52.184;5.596;2022-11-12T06:01:30;5.53;;;4.38;;
66633;SDS011;53546;52.184;5.596;2022-11-12T06:03:56;5.18;;;4.30;;
66633;SDS011;53546;52.184;5.596;2022-11-12T06:06:22;6.15;;;4.00;;
66633;SDS011;53546;52.184;5.596;2022-11-12T06:08:47;8.68;;;4.80;;
66633;SDS011;53546;52.184;5.596;2022-11-12T06:11:13;7.75;;;4.55;;
66633;SDS011;53546;52.184;5.596;2022-11-12T06:13:39;5.25;;;4.30;;
66633;SDS011;53546;52.184;5.596;2022-11-12T06:16:04;5.05;;;4.10;;
66633;SDS011;53546;52.184;5.596;2022-11-12T06:18:30;8.73;;;4.60;;
66633;SDS011;53546;52.184;5.596;2022-11-12T06:21:06;7.05;;;4.68;;
66633;SDS011;53546;52.184;5.596;2022-11-12T06:23:47;5.72;;;4.07;;
66633;SDS011;53546;52.184;5.596;2022-11-12T06:26:14;7.25;;;4.30;;
66633;SDS011;53546;52.184;5.596;2022-11-12T06:28:39;10.38;;;4.13;;
66633;SDS011;53546;52.184;5.596;2022-11-12T06:31:05;6.65;;;4.30;;
66633;SDS011;53546;52.184;5.596;2022-11-12T06:33:30;5.30;;;4.22;;
66633;SDS011;53546;52.184;5.596;2022-11-12T06:35:59;8.27;;;4.78;;
66633;SDS011;53546;52.184;5.596;2022-11-12T06:38:31;7.63;;;4.05;;
66633;SDS011;53546;52.184;5.596;2022-11-12T06:40:57;5.85;;;4.25;;
66633;SDS011;53546;52.184;5.596;2022-11-12T06:43:23;5.38;;;4.22;;
66633;SDS011;53546;52.184;5.596;2022-11-12T06:45:49;6.00;;;4.60;;
66633;SDS011;53546;52.184;5.596;2022-11-12T06:48:14;6.20;;;4.45;;
66633;SDS011;53546;52.184;5.596;2022-11-12T06:50:39;5.78;;;4.80;;
66633;SDS011;53546;52.184;5.596;2022-11-12T06:53:05;7.63;;;4.28;;
66633;SDS011;53546;52.184;5.596;2022-11-12T06:55:30;13.90;;;5.35;;
66633;SDS011;53546;52.184;5.596;2022-11-12T06:57:56;11.13;;;4.72;;
66633;SDS011;53546;52.184;5.596;2022-11-12T07:00:21;8.90;;;5.18;;
66633;SDS011;53546;52.184;5.596;2022-11-12T07:02:47;11.07;;;5.38;;
66633;SDS011;53546;52.184;5.596;2022-11-12T07:05:12;15.40;;;5.40;;
66633;SDS011;53546;52.184;5.596;2022-11-12T07:07:38;11.20;;;5.10;;
66633;SDS011;53546;52.184;5.596;2022-11-12T07:10:03;13.85;;;4.80;;
66633;SDS011;53546;52.184;5.596;2022-11-12T07:12:29;24.00;;;7.65;;
66633;SDS011;53546;52.184;5.596;2022-11-12T07:14:54;22.40;;;7.30;;
66633;SDS011;53546;52.184;5.596;2022-11-12T07:17:20;25.20;;;6.63;;
66633;SDS011;53546;52.184;5.596;2022-11-12T07:19:45;18.58;;;6.70;;
66633;SDS011;53546;52.184;5.596;2022-11-12T07:22:11;15.98;;;6.40;;
66633;SDS011;53546;52.184;5.596;2022-11-12T07:24:36;23.65;;;6.53;;
66633;SDS011;53546;52.184;5.596;2022-11-12T07:27:02;57.33;;;7.13;;
66633;SDS011;53546;52.184;5.596;2022-11-12T07:29:27;11.68;;;5.68;;
66633;SDS011;53546;52.184;5.596;2022-11-12T07:31:52;21.45;;;6.03;;
66633;SDS011;53546;52.184;5.596;2022-11-12T07:34:18;13.60;;;5.50;;
66633;SDS011;53546;52.184;5.596;2022-11-12T07:36:43;16.63;;;5.90;;
66633;SDS011;53546;52.184;5.596;2022-11-12T07:39:09;17.98;;;5.60;;
66633;SDS011;53546;52.184;5.596;2022-11-12T07:41:34;12.10;;;5.57;;
66633;SDS011;53546;52.184;5.596;2022-11-12T07:43:59;15.48;;;5.57;;
66633;SDS011;53546;52.184;5.596;2022-11-12T07:46:25;24.05;;;5.47;;
66633;SDS011;53546;52.184;5.596;2022-11-12T07:48:51;15.85;;;5.53;;
66633;SDS011;53546;52.184;5.596;2022-11-12T07:51:18;18.67;;;5.85;;
66633;SDS011;53546;52.184;5.596;2022-11-12T07:53:45;14.35;;;6.30;;
66633;SDS011;53546;52.184;5.596;2022-11-12T07:56:12;28.85;;;7.45;;
66633;SDS011;53546;52.184;5.596;2022-11-12T07:58:39;18.38;;;6.82;;
66633;SDS011;53546;52.184;5.596;2022-11-12T08:03:51;23.75;;;7.65;;
66633;SDS011;53546;52.184;5.596;2022-11-12T08:06:17;19.63;;;6.82;;
66633;SDS011;53546;52.184;5.596;2022-11-12T08:08:42;26.70;;;7.72;;
66633;SDS011;53546;52.184;5.596;2022-11-12T08:11:08;20.55;;;6.95;;
66633;SDS011;53546;52.184;5.596;2022-11-12T08:13:33;22.90;;;7.60;;
66633;SDS011;53546;52.184;5.596;2022-11-12T08:15:58;21.90;;;7.82;;
66633;SDS011;53546;52.184;5.596;2022-11-12T08:18:24;27.65;;;7.95;;
66633;SDS011;53546;52.184;5.596;2022-11-12T08:20:50;26.58;;;7.40;;
66633;SDS011;53546;52.184;5.596;2022-11-12T08:23:16;21.27;;;8.25;;
66633;SDS011;53546;52.184;5.596;2022-11-12T08:25:41;21.23;;;7.40;;
66633;SDS011;53546;52.184;5.596;2022-11-12T08:28:06;21.90;;;7.25;;
66633;SDS011;53546;52.184;5.596;2022-11-12T08:30:32;17.63;;;7.53;;
66633;SDS011;53546;52.184;5.596;2022-11-12T08:33:02;15.38;;;6.68;;
66633;SDS011;53546;52.184;5.596;2022-11-12T08:35:28;21.77;;;7.22;;
66633;SDS011;53546;52.184;5.596;2022-11-12T08:37:58;20.90;;;7.30;;
66633;SDS011;53546;52.184;5.596;2022-11-12T08:40:24;16.70;;;6.50;;
66633;SDS011;53546;52.184;5.596;2022-11-12T08:45:22;14.55;;;6.85;;
66633;SDS011;53546;52.184;5.596;2022-11-12T08:47:48;19.13;;;8.43;;
66633;SDS011;53546;52.184;5.596;2022-11-12T08:50:13;13.95;;;6.95;;
66633;SDS011;53546;52.184;5.596;2022-11-12T08:52:39;15.52;;;7.00;;
66633;SDS011;53546;52.184;5.596;2022-11-12T08:55:04;13.50;;;6.93;;
66633;SDS011;53546;52.184;5.596;2022-11-12T08:57:30;13.70;;;6.80;;
66633;SDS011;53546;52.184;5.596;2022-11-12T08:59:55;12.07;;;6.28;;
66633;SDS011;53546;52.184;5.596;2022-11-12T09:02:21;16.58;;;6.78;;
66633;SDS011;53546;52.184;5.596;2022-11-12T09:04:46;14.48;;;6.60;;
66633;SDS011;53546;52.184;5.596;2022-11-12T09:07:11;15.23;;;6.05;;
66633;SDS011;53546;52.184;5.596;2022-11-12T09:09:37;15.23;;;6.25;;
66633;SDS011;53546;52.184;5.596;2022-11-12T09:12:02;14.57;;;6.55;;
66633;SDS011;53546;52.184;5.596;2022-11-12T09:14:28;14.88;;;6.30;;
66633;SDS011;53546;52.184;5.596;2022-11-12T09:16:53;9.93;;;5.95;;
66633;SDS011;53546;52.184;5.596;2022-11-12T09:19:18;11.70;;;5.57;;
66633;SDS011;53546;52.184;5.596;2022-11-12T09:21:44;10.07;;;5.88;;
66633;SDS011;53546;52.184;5.596;2022-11-12T09:24:09;10.27;;;6.20;;
66633;SDS011;53546;52.184;5.596;2022-11-12T09:26:34;11.02;;;5.85;;
66633;SDS011;53546;52.184;5.596;2022-11-12T09:29:00;14.38;;;6.38;;
66633;SDS011;53546;52.184;5.596;2022-11-12T09:31:25;13.20;;;6.10;;
66633;SDS011;53546;52.184;5.596;2022-11-12T09:33:51;11.27;;;5.65;;
66633;SDS011;53546;52.184;5.596;2022-11-12T09:36:16;9.63;;;5.60;;
66633;SDS011;53546;52.184;5.596;2022-11-12T09:38:41;9.15;;;5.47;;
66633;SDS011;53546;52.184;5.596;2022-11-12T09:43:42;9.85;;;6.05;;
66633;SDS011;53546;52.184;5.596;2022-11-12T09:46:22;8.60;;;5.60;;
66633;SDS011;53546;52.184;5.596;2022-11-12T09:48:52;8.25;;;5.38;;
66633;SDS011;53546;52.184;5.596;2022-11-12T09:53:55;8.10;;;5.47;;
66633;SDS011;53546;52.184;5.596;2022-11-12T09:56:22;8.63;;;5.78;;
66633;SDS011;53546;52.184;5.596;2022-11-12T09:58:48;10.80;;;5.70;;
66633;SDS011;53546;52.184;5.596;2022-11-12T10:06:11;10.40;;;5.65;;
66633;SDS011;53546;52.184;5.596;2022-11-12T10:11:19;10.65;;;5.93;;
66633;SDS011;53546;52.184;5.596;2022-11-12T10:14:24;9.45;;;5.68;;
66633;SDS011;53546;52.184;5.596;2022-11-12T10:25:37;7.45;;;5.60;;
66633;SDS011;53546;52.184;5.596;2022-11-12T10:28:18;14.55;;;5.68;;
66633;SDS011;53546;52.184;5.596;2022-11-12T10:30:51;8.40;;;5.65;;
66633;SDS011;53546;52.184;5.596;2022-11-12T10:33:18;10.85;;;5.90;;
66633;SDS011;53546;52.184;5.596;2022-11-12T10:35:43;8.13;;;5.40;;
66633;SDS011;53546;52.184;5.596;2022-11-12T10:38:10;10.20;;;5.68;;
66633;SDS011;53546;52.184;5.596;2022-11-12T10:40:39;7.97;;;5.68;;
66633;SDS011;53546;52.184;5.596;2022-11-12T10:45:39;6.05;;;5.03;;
66633;SDS011;53546;52.184;5.596;2022-11-12T10:48:18;8.13;;;5.18;;
66633;SDS011;53546;52.184;5.596;2022-11-12T10:50:46;10.68;;;5.10;;
66633;SDS011;53546;52.184;5.596;2022-11-12T10:53:11;8.30;;;5.50;;
66633;SDS011;53546;52.184;5.596;2022-11-12T10:55:37;6.70;;;5.10;;
66633;SDS011;53546;52.184;5.596;2022-11-12T10:58:19;8.23;;;5.20;;
66633;SDS011;53546;52.184;5.596;2022-11-12T11:03:23;7.72;;;4.80;;
66633;SDS011;53546;52.184;5.596;2022-11-12T11:06:00;7.82;;;4.90;;
66633;SDS011;53546;52.184;5.596;2022-11-12T11:08:31;9.35;;;4.93;;
66633;SDS011;53546;52.184;5.596;2022-11-12T11:11:39;6.03;;;4.55;;
66633;SDS011;53546;52.184;5.596;2022-11-12T11:13:47;8.52;;;5.00;;
66633;SDS011;53546;52.184;5.596;2022-11-12T11:16:17;6.72;;;5.30;;
66633;SDS011;53546;52.184;5.596;2022-11-12T11:19:17;10.23;;;4.80;;
66633;SDS011;53546;52.184;5.596;2022-11-12T11:29:48;7.30;;;4.88;;
66633;SDS011;53546;52.184;5.596;2022-11-12T11:32:25;6.68;;;4.68;;
66633;SDS011;53546;52.184;5.596;2022-11-12T11:38:27;6.80;;;4.72;;
66633;SDS011;53546;52.184;5.596;2022-11-12T11:52:46;11.65;;;4.47;;
66633;SDS011;53546;52.184;5.596;2022-11-12T11:55:19;6.90;;;4.60;;
66633;SDS011;53546;52.184;5.596;2022-11-12T11:58:03;7.07;;;4.25;;
66633;SDS011;53546;52.184;5.596;2022-11-12T12:00:52;6.45;;;4.43;;
66633;SDS011;53546;52.184;5.596;2022-11-12T12:06:25;7.05;;;4.00;;
66633;SDS011;53546;52.184;5.596;2022-11-12T12:12:20;5.35;;;3.83;;
66633;SDS011;53546;52.184;5.596;2022-11-12T12:15:09;6.00;;;3.95;;
66633;SDS011;53546;52.184;5.596;2022-11-12T12:23:24;9.77;;;4.13;;
66633;SDS011;53546;52.184;5.596;2022-11-12T12:25:54;8.18;;;3.85;;
66633;SDS011;53546;52.184;5.596;2022-11-12T12:28:25;9.18;;;4.43;;
66633;SDS011;53546;52.184;5.596;2022-11-12T12:31:28;9.05;;;4.50;;
66633;SDS011;53546;52.184;5.596;2022-11-12T12:34:01;7.07;;;4.05;;
66633;SDS011;53546;52.184;5.596;2022-11-12T12:36:34;6.40;;;3.93;;
66633;SDS011;53546;52.184;5.596;2022-11-12T12:44:44;6.95;;;3.75;;
66633;SDS011;53546;52.184;5.596;2022-11-12T12:47:34;12.80;;;3.90;;
66633;SDS011;53546;52.184;5.596;2022-11-12T12:50:02;8.98;;;3.97;;
66633;SDS011;53546;52.184;5.596;2022-11-12T12:52:57;6.68;;;3.40;;
66633;SDS011;53546;52.184;5.596;2022-11-12T12:55:33;12.15;;;4.32;;
66633;SDS011;53546;52.184;5.596;2022-11-12T12:58:03;7.15;;;3.75;;
66633;SDS011;53546;52.184;5.596;2022-11-12T13:00:38;6.57;;;3.30;;
66633;SDS011;53546;52.184;5.596;2022-11-12T13:03:04;6.25;;;3.60;;
66633;SDS011;53546;52.184;5.596;2022-11-12T13:05:34;6.25;;;3.80;;
66633;SDS011;53546;52.184;5.596;2022-11-12T13:08:01;8.70;;;3.42;;
66633;SDS011;53546;52.184;5.596;2022-11-12T13:10:44;14.38;;;4.43;;
66633;SDS011;53546;52.184;5.596;2022-11-12T13:15:46;17.33;;;3.88;;
66633;SDS011;53546;52.184;5.596;2022-11-12T13:21:16;8.20;;;3.85;;
66633;SDS011;53546;52.184;5.596;2022-11-12T13:26:47;12.50;;;3.80;;
66633;SDS011;53546;52.184;5.596;2022-11-12T13:32:34;10.65;;;3.75;;
66633;SDS011;53546;52.184;5.596;2022-11-12T13:37:41;11.00;;;3.42;;
66633;SDS011;53546;52.184;5.596;2022-11-12T13:45:52;6.80;;;3.15;;
66633;SDS011;53546;52.184;5.596;2022-11-12T13:48:25;12.13;;;3.50;;
66633;SDS011;53546;52.184;5.596;2022-11-12T13:50:53;9.95;;;3.50;;
66633;SDS011;53546;52.184;5.596;2022-11-12T13:53:21;7.63;;;3.30;;
66633;SDS011;53546;52.184;5.596;2022-11-12T13:55:50;7.72;;;3.20;;
66633;SDS011;53546;52.184;5.596;2022-11-12T13:58:29;9.88;;;3.35;;
66633;SDS011;53546;52.184;5.596;2022-11-12T14:00:56;5.68;;;3.13;;
66633;SDS011;53546;52.184;5.596;2022-11-12T14:03:24;12.00;;;3.13;;
66633;SDS011;53546;52.184;5.596;2022-11-12T14:05:53;6.60;;;2.88;;
66633;SDS011;53546;52.184;5.596;2022-11-12T14:08:26;5.35;;;3.00;;
66633;SDS011;53546;52.184;5.596;2022-11-12T14:21:59;6.40;;;2.83;;
66633;SDS011;53546;52.184;5.596;2022-11-12T14:24:37;6.30;;;2.90;;
66633;SDS011;53546;52.184;5.596;2022-11-12T14:27:03;4.05;;;2.67;;
66633;SDS011;53546;52.184;5.596;2022-11-12T14:29:29;5.30;;;2.72;;
66633;SDS011;53546;52.184;5.596;2022-11-12T14:32:01;9.93;;;3.00;;
66633;SDS011;53546;52.184;5.596;2022-11-12T14:36:57;11.25;;;3.13;;
66633;SDS011;53546;52.184;5.596;2022-11-12T14:39:23;6.65;;;2.83;;
66633;SDS011;53546;52.184;5.596;2022-11-12T14:41:49;9.95;;;2.83;;
66633;SDS011;53546;52.184;5.596;2022-11-12T14:44:20;9.05;;;2.65;;
66633;SDS011;53546;52.184;5.596;2022-11-12T14:46:52;6.47;;;2.60;;
66633;SDS011;53546;52.184;5.596;2022-11-12T14:52:26;7.68;;;2.90;;
66633;SDS011;53546;52.184;5.596;2022-11-12T14:54:58;7.43;;;2.35;;
66633;SDS011;53546;52.184;5.596;2022-11-12T14:57:29;10.27;;;2.70;;
66633;SDS011;53546;52.184;5.596;2022-11-12T14:59:55;13.45;;;3.17;;
66633;SDS011;53546;52.184;5.596;2022-11-12T15:02:25;7.55;;;2.92;;
66633;SDS011;53546;52.184;5.596;2022-11-12T15:05:09;5.03;;;2.50;;
66633;SDS011;53546;52.184;5.596;2022-11-12T15:07:49;7.88;;;2.55;;
66633;SDS011;53546;52.184;5.596;2022-11-12T15:10:28;7.25;;;2.78;;
66633;SDS011;53546;52.184;5.596;2022-11-12T15:13:06;5.35;;;2.53;;
66633;SDS011;53546;52.184;5.596;2022-11-12T15:15:33;5.93;;;2.50;;
66633;SDS011;53546;52.184;5.596;2022-11-12T15:18:00;6.22;;;2.28;;
66633;SDS011;53546;52.184;5.596;2022-11-12T15:20:27;6.22;;;2.47;;
66633;SDS011;53546;52.184;5.596;2022-11-12T15:22:53;5.70;;;2.60;;
66633;SDS011;53546;52.184;5.596;2022-11-12T15:27:51;3.07;;;2.27;;
66633;SDS011;53546;52.184;5.596;2022-11-12T15:35:37;5.57;;;2.30;;
66633;SDS011;53546;52.184;5.596;2022-11-12T15:38:09;3.97;;;2.40;;
66633;SDS011;53546;52.184;5.596;2022-11-12T15:41:02;8.25;;;2.35;;
66633;SDS011;53546;52.184;5.596;2022-11-12T15:43:29;9.52;;;2.40;;
66633;SDS011;53546;52.184;5.596;2022-11-12T15:45:57;9.60;;;2.75;;
66633;SDS011;53546;52.184;5.596;2022-11-12T15:48:22;5.18;;;2.65;;
66633;SDS011;53546;52.184;5.596;2022-11-12T15:50:48;3.45;;;2.40;;
66633;SDS011;53546;52.184;5.596;2022-11-12T15:53:13;3.85;;;2.30;;
66633;SDS011;53546;52.184;5.596;2022-11-12T15:55:39;7.95;;;2.33;;
66633;SDS011;53546;52.184;5.596;2022-11-12T15:58:05;4.32;;;2.22;;
66633;SDS011;53546;52.184;5.596;2022-11-12T16:00:33;7.38;;;2.80;;
66633;SDS011;53546;52.184;5.596;2022-11-12T16:03:09;7.80;;;2.60;;
66633;SDS011;53546;52.184;5.596;2022-11-12T16:05:36;6.38;;;2.40;;
66633;SDS011;53546;52.184;5.596;2022-11-12T16:08:02;5.38;;;2.63;;
66633;SDS011;53546;52.184;5.596;2022-11-12T16:10:27;4.10;;;2.42;;
66633;SDS011;53546;52.184;5.596;2022-11-12T16:12:54;9.23;;;2.65;;
66633;SDS011;53546;52.184;5.596;2022-11-12T16:15:21;3.67;;;2.30;;
66633;SDS011;53546;52.184;5.596;2022-11-12T16:17:50;4.38;;;2.20;;
66633;SDS011;53546;52.184;5.596;2022-11-12T16:20:17;9.57;;;2.40;;
66633;SDS011;53546;52.184;5.596;2022-11-12T16:22:45;4.50;;;2.30;;
66633;SDS011;53546;52.184;5.596;2022-11-12T16:25:11;5.25;;;2.38;;
66633;SDS011;53546;52.184;5.596;2022-11-12T16:27:36;5.93;;;2.13;;
66633;SDS011;53546;52.184;5.596;2022-11-12T16:30:03;6.57;;;2.42;;
66633;SDS011;53546;52.184;5.596;2022-11-12T16:32:31;4.05;;;2.75;;
66633;SDS011;53546;52.184;5.596;2022-11-12T16:34:56;3.55;;;2.42;;
66633;SDS011;53546;52.184;5.596;2022-11-12T16:37:22;4.35;;;2.60;;
66633;SDS011;53546;52.184;5.596;2022-11-12T16:39:47;7.43;;;2.58;;
66633;SDS011;53546;52.184;5.596;2022-11-12T16:42:12;5.88;;;2.20;;
66633;SDS011;53546;52.184;5.596;2022-11-12T16:44:38;5.47;;;2.72;;
66633;SDS011;53546;52.184;5.596;2022-11-12T16:47:03;8.18;;;2.47;;
66633;SDS011;53546;52.184;5.596;2022-11-12T16:49:29;3.50;;;2.50;;
66633;SDS011;53546;52.184;5.596;2022-11-12T16:51:54;8.15;;;2.92;;
66633;SDS011;53546;52.184;5.596;2022-11-12T16:54:20;3.65;;;2.40;;